sensor_id;sensor_type;location;lat;lon;timestamp;P1;durP1;ratioP1;P2;durP2;ratioP2
8636;SDS011;4356;49.068;8.658;2022-09-12T00:01:17;3.10;;;2.90;;
8636;SDS011;4356;49.068;8.658;2022-09-12T00:03:45;4.27;;;3.40;;
8636;SDS011;4356;49.068;8.658;2022-09-12T00:06:12;3.30;;;3.20;;
8636;SDS011;4356;49.068;8.658;2022-09-12T00:08:41;3.43;;;3.10;;
8636;SDS011;4356;49.068;8.658;2022-09-12T00:11:09;3.73;;;3.50;;
8636;SDS011;4356;49.068;8.658;2022-09-12T00:13:36;3.10;;;2.97;;
8636;SDS011;4356;49.068;8.658;2022-09-12T00:16:03;4.27;;;3.47;;
8636;SDS011;4356;49.068;8.658;2022-09-12T00:18:29;3.60;;;3.43;;
8636;SDS011;4356;49.068;8.658;2022-09-12T00:20:56;3.47;;;3.17;;
8636;SDS011;4356;49.068;8.658;2022-09-12T00:23:21;3.03;;;2.93;;
8636;SDS011;4356;49.068;8.658;2022-09-12T00:25:47;5.67;;;3.40;;
8636;SDS011;4356;49.068;8.658;2022-09-12T00:28:14;3.40;;;3.20;;
8636;SDS011;4356;49.068;8.658;2022-09-12T00:30:45;3.13;;;3.03;;
8636;SDS011;4356;49.068;8.658;2022-09-12T00:33:12;3.13;;;2.80;;
8636;SDS011;4356;49.068;8.658;2022-09-12T00:35:43;3.60;;;3.30;;
8636;SDS011;4356;49.068;8.658;2022-09-12T00:38:11;5.07;;;3.13;;
8636;SDS011;4356;49.068;8.658;2022-09-12T00:40:37;3.70;;;3.40;;
8636;SDS011;4356;49.068;8.658;2022-09-12T00:43:03;3.17;;;3.07;;
8636;SDS011;4356;49.068;8.658;2022-09-12T00:45:29;3.73;;;3.43;;
8636;SDS011;4356;49.068;8.658;2022-09-12T00:47:56;3.17;;;2.97;;
8636;SDS011;4356;49.068;8.658;2022-09-12T00:50:26;4.33;;;3.30;;
8636;SDS011;4356;49.068;8.658;2022-09-12T00:52:54;3.60;;;3.40;;
8636;SDS011;4356;49.068;8.658;2022-09-12T00:55:31;3.60;;;3.30;;
8636;SDS011;4356;49.068;8.658;2022-09-12T00:57:59;3.67;;;3.47;;
8636;SDS011;4356;49.068;8.658;2022-09-12T01:00:30;3.43;;;3.23;;
8636;SDS011;4356;49.068;8.658;2022-09-12T01:03:00;3.27;;;3.17;;
8636;SDS011;4356;49.068;8.658;2022-09-12T01:05:32;3.37;;;3.07;;
8636;SDS011;4356;49.068;8.658;2022-09-12T01:08:04;3.60;;;3.40;;
8636;SDS011;4356;49.068;8.658;2022-09-12T01:10:30;3.77;;;3.47;;
8636;SDS011;4356;49.068;8.658;2022-09-12T01:12:59;4.40;;;3.60;;
8636;SDS011;4356;49.068;8.658;2022-09-12T01:15:27;3.83;;;3.53;;
8636;SDS011;4356;49.068;8.658;2022-09-12T01:21:13;3.93;;;3.73;;
8636;SDS011;4356;49.068;8.658;2022-09-12T01:27:11;3.80;;;3.60;;
8636;SDS011;4356;49.068;8.658;2022-09-12T01:32:35;4.40;;;3.50;;
8636;SDS011;4356;49.068;8.658;2022-09-12T01:40:29;4.17;;;3.77;;
8636;SDS011;4356;49.068;8.658;2022-09-12T01:45:46;4.30;;;3.90;;
8636;SDS011;4356;49.068;8.658;2022-09-12T01:48:29;3.57;;;3.37;;
8636;SDS011;4356;49.068;8.658;2022-09-12T01:51:09;3.73;;;3.53;;
8636;SDS011;4356;49.068;8.658;2022-09-12T01:53:49;3.80;;;3.53;;
8636;SDS011;4356;49.068;8.658;2022-09-12T01:56:23;3.70;;;3.50;;
8636;SDS011;4356;49.068;8.658;2022-09-12T01:59:00;3.33;;;3.20;;
8636;SDS011;4356;49.068;8.658;2022-09-12T02:01:33;3.93;;;3.73;;
8636;SDS011;4356;49.068;8.658;2022-09-12T02:09:27;3.60;;;3.40;;
8636;SDS011;4356;49.068;8.658;2022-09-12T02:11:59;3.87;;;3.67;;
8636;SDS011;4356;49.068;8.658;2022-09-12T02:14:29;3.83;;;3.63;;
8636;SDS011;4356;49.068;8.658;2022-09-12T02:16:59;4.23;;;3.93;;
8636;SDS011;4356;49.068;8.658;2022-09-12T02:19:54;3.73;;;3.57;;
8636;SDS011;4356;49.068;8.658;2022-09-12T02:22:21;3.90;;;3.60;;
8636;SDS011;4356;49.068;8.658;2022-09-12T02:24:49;3.60;;;3.40;;
8636;SDS011;4356;49.068;8.658;2022-09-12T02:27:27;4.00;;;3.80;;
8636;SDS011;4356;49.068;8.658;2022-09-12T02:30:04;4.23;;;4.00;;
8636;SDS011;4356;49.068;8.658;2022-09-12T02:32:48;3.73;;;3.53;;
8636;SDS011;4356;49.068;8.658;2022-09-12T02:38:29;4.10;;;3.80;;
8636;SDS011;4356;49.068;8.658;2022-09-12T02:41:01;4.13;;;3.93;;
8636;SDS011;4356;49.068;8.658;2022-09-12T02:43:27;4.10;;;3.90;;
8636;SDS011;4356;49.068;8.658;2022-09-12T02:45:53;4.03;;;3.73;;
8636;SDS011;4356;49.068;8.658;2022-09-12T02:48:26;4.37;;;4.07;;
8636;SDS011;4356;49.068;8.658;2022-09-12T02:50:53;6.70;;;4.10;;
8636;SDS011;4356;49.068;8.658;2022-09-12T02:53:19;4.40;;;4.10;;
8636;SDS011;4356;49.068;8.658;2022-09-12T02:55:45;4.80;;;4.50;;
8636;SDS011;4356;49.068;8.658;2022-09-12T02:58:12;4.23;;;4.03;;
8636;SDS011;4356;49.068;8.658;2022-09-12T03:11:50;5.30;;;4.90;;
8636;SDS011;4356;49.068;8.658;2022-09-12T03:17:13;4.67;;;4.47;;
8636;SDS011;4356;49.068;8.658;2022-09-12T03:20:06;5.53;;;5.13;;
8636;SDS011;4356;49.068;8.658;2022-09-12T03:28:08;4.73;;;4.43;;
8636;SDS011;4356;49.068;8.658;2022-09-12T03:30:42;4.03;;;3.83;;
8636;SDS011;4356;49.068;8.658;2022-09-12T03:33:10;4.57;;;4.27;;
8636;SDS011;4356;49.068;8.658;2022-09-12T03:35:40;4.53;;;4.30;;
8636;SDS011;4356;49.068;8.658;2022-09-12T03:38:06;4.13;;;3.93;;
8636;SDS011;4356;49.068;8.658;2022-09-12T03:40:35;5.30;;;4.90;;
8636;SDS011;4356;49.068;8.658;2022-09-12T03:43:02;4.30;;;4.10;;
8636;SDS011;4356;49.068;8.658;2022-09-12T03:45:32;4.23;;;3.97;;
8636;SDS011;4356;49.068;8.658;2022-09-12T03:47:58;4.40;;;4.20;;
8636;SDS011;4356;49.068;8.658;2022-09-12T03:50:24;4.67;;;4.37;;
8636;SDS011;4356;49.068;8.658;2022-09-12T03:52:50;4.20;;;4.00;;
8636;SDS011;4356;49.068;8.658;2022-09-12T03:55:16;4.40;;;4.00;;
8636;SDS011;4356;49.068;8.658;2022-09-12T03:57:42;4.70;;;4.30;;
8636;SDS011;4356;49.068;8.658;2022-09-12T04:00:08;4.90;;;4.50;;
8636;SDS011;4356;49.068;8.658;2022-09-12T04:02:35;4.77;;;4.20;;
8636;SDS011;4356;49.068;8.658;2022-09-12T04:05:01;5.73;;;4.20;;
8636;SDS011;4356;49.068;8.658;2022-09-12T04:07:27;4.03;;;3.80;;
8636;SDS011;4356;49.068;8.658;2022-09-12T04:09:53;4.43;;;3.90;;
8636;SDS011;4356;49.068;8.658;2022-09-12T04:12:19;4.57;;;4.37;;
8636;SDS011;4356;49.068;8.658;2022-09-12T04:14:45;5.20;;;4.90;;
8636;SDS011;4356;49.068;8.658;2022-09-12T04:17:10;4.77;;;4.47;;
8636;SDS011;4356;49.068;8.658;2022-09-12T04:19:36;4.90;;;4.60;;
8636;SDS011;4356;49.068;8.658;2022-09-12T04:22:03;4.67;;;4.47;;
8636;SDS011;4356;49.068;8.658;2022-09-12T04:24:29;4.80;;;4.50;;
8636;SDS011;4356;49.068;8.658;2022-09-12T04:26:55;5.13;;;4.70;;
8636;SDS011;4356;49.068;8.658;2022-09-12T04:29:20;4.60;;;4.40;;
8636;SDS011;4356;49.068;8.658;2022-09-12T04:31:46;7.63;;;4.60;;
8636;SDS011;4356;49.068;8.658;2022-09-12T04:34:12;4.93;;;4.50;;
8636;SDS011;4356;49.068;8.658;2022-09-12T04:36:38;4.80;;;4.50;;
8636;SDS011;4356;49.068;8.658;2022-09-12T04:39:03;5.50;;;4.13;;
8636;SDS011;4356;49.068;8.658;2022-09-12T04:41:31;4.63;;;4.33;;
8636;SDS011;4356;49.068;8.658;2022-09-12T04:44:02;4.10;;;3.80;;
8636;SDS011;4356;49.068;8.658;2022-09-12T04:46:31;4.83;;;4.43;;
8636;SDS011;4356;49.068;8.658;2022-09-12T04:48:59;4.53;;;4.23;;
8636;SDS011;4356;49.068;8.658;2022-09-12T04:51:26;5.00;;;4.60;;
8636;SDS011;4356;49.068;8.658;2022-09-12T04:53:55;4.50;;;4.13;;
8636;SDS011;4356;49.068;8.658;2022-09-12T04:56:22;4.97;;;4.57;;
8636;SDS011;4356;49.068;8.658;2022-09-12T04:58:48;4.70;;;4.30;;
8636;SDS011;4356;49.068;8.658;2022-09-12T05:01:15;4.70;;;4.30;;
8636;SDS011;4356;49.068;8.658;2022-09-12T05:03:43;4.57;;;4.27;;
8636;SDS011;4356;49.068;8.658;2022-09-12T05:06:12;4.53;;;4.33;;
8636;SDS011;4356;49.068;8.658;2022-09-12T05:08:43;5.27;;;4.77;;
8636;SDS011;4356;49.068;8.658;2022-09-12T05:11:21;5.13;;;4.83;;
8636;SDS011;4356;49.068;8.658;2022-09-12T05:13:49;6.63;;;5.23;;
8636;SDS011;4356;49.068;8.658;2022-09-12T05:16:15;5.70;;;5.40;;
8636;SDS011;4356;49.068;8.658;2022-09-12T05:18:42;5.93;;;5.40;;
8636;SDS011;4356;49.068;8.658;2022-09-12T05:21:10;5.37;;;4.87;;
8636;SDS011;4356;49.068;8.658;2022-09-12T05:23:37;5.63;;;5.13;;
8636;SDS011;4356;49.068;8.658;2022-09-12T05:26:04;5.50;;;5.10;;
8636;SDS011;4356;49.068;8.658;2022-09-12T05:28:32;5.70;;;5.30;;
8636;SDS011;4356;49.068;8.658;2022-09-12T05:31:07;5.35;;;4.95;;
8636;SDS011;4356;49.068;8.658;2022-09-12T05:33:36;4.97;;;4.67;;
8636;SDS011;4356;49.068;8.658;2022-09-12T05:36:04;5.00;;;4.70;;
8636;SDS011;4356;49.068;8.658;2022-09-12T05:38:35;6.00;;;5.60;;
8636;SDS011;4356;49.068;8.658;2022-09-12T05:41:05;5.33;;;4.93;;
8636;SDS011;4356;49.068;8.658;2022-09-12T05:43:39;4.77;;;4.03;;
8636;SDS011;4356;49.068;8.658;2022-09-12T05:46:16;5.30;;;4.90;;
8636;SDS011;4356;49.068;8.658;2022-09-12T05:48:43;4.47;;;4.17;;
8636;SDS011;4356;49.068;8.658;2022-09-12T05:51:11;5.10;;;4.80;;
8636;SDS011;4356;49.068;8.658;2022-09-12T05:53:41;4.83;;;4.53;;
8636;SDS011;4356;49.068;8.658;2022-09-12T05:56:08;5.90;;;5.33;;
8636;SDS011;4356;49.068;8.658;2022-09-12T05:58:36;5.70;;;5.40;;
8636;SDS011;4356;49.068;8.658;2022-09-12T06:01:05;6.93;;;6.10;;
8636;SDS011;4356;49.068;8.658;2022-09-12T06:03:39;6.47;;;5.87;;
8636;SDS011;4356;49.068;8.658;2022-09-12T06:06:07;6.30;;;5.90;;
8636;SDS011;4356;49.068;8.658;2022-09-12T06:08:33;6.53;;;6.07;;
8636;SDS011;4356;49.068;8.658;2022-09-12T06:11:04;6.67;;;6.17;;
8636;SDS011;4356;49.068;8.658;2022-09-12T06:13:31;6.37;;;5.90;;
8636;SDS011;4356;49.068;8.658;2022-09-12T06:18:32;6.30;;;5.80;;
8636;SDS011;4356;49.068;8.658;2022-09-12T06:21:03;6.00;;;5.60;;
8636;SDS011;4356;49.068;8.658;2022-09-12T06:23:29;5.93;;;5.53;;
8636;SDS011;4356;49.068;8.658;2022-09-12T06:25:55;5.73;;;5.37;;
8636;SDS011;4356;49.068;8.658;2022-09-12T06:28:20;5.87;;;5.47;;
8636;SDS011;4356;49.068;8.658;2022-09-12T06:30:46;5.83;;;5.43;;
8636;SDS011;4356;49.068;8.658;2022-09-12T06:33:13;5.80;;;5.50;;
8636;SDS011;4356;49.068;8.658;2022-09-12T06:35:39;5.80;;;5.40;;
8636;SDS011;4356;49.068;8.658;2022-09-12T06:38:05;5.40;;;5.10;;
8636;SDS011;4356;49.068;8.658;2022-09-12T06:40:31;5.97;;;5.57;;
8636;SDS011;4356;49.068;8.658;2022-09-12T06:42:57;5.40;;;5.10;;
8636;SDS011;4356;49.068;8.658;2022-09-12T06:45:23;5.80;;;5.40;;
8636;SDS011;4356;49.068;8.658;2022-09-12T06:47:50;6.17;;;5.77;;
8636;SDS011;4356;49.068;8.658;2022-09-12T06:50:15;6.17;;;5.73;;
8636;SDS011;4356;49.068;8.658;2022-09-12T06:52:44;5.53;;;5.13;;
8636;SDS011;4356;49.068;8.658;2022-09-12T06:55:09;5.90;;;5.50;;
8636;SDS011;4356;49.068;8.658;2022-09-12T06:57:35;6.40;;;5.93;;
8636;SDS011;4356;49.068;8.658;2022-09-12T07:00:03;6.23;;;5.83;;
8636;SDS011;4356;49.068;8.658;2022-09-12T07:02:29;6.03;;;5.60;;
8636;SDS011;4356;49.068;8.658;2022-09-12T07:04:55;6.17;;;5.77;;
8636;SDS011;4356;49.068;8.658;2022-09-12T07:07:21;5.90;;;5.50;;
8636;SDS011;4356;49.068;8.658;2022-09-12T07:09:47;5.53;;;5.13;;
8636;SDS011;4356;49.068;8.658;2022-09-12T07:12:13;6.17;;;5.77;;
8636;SDS011;4356;49.068;8.658;2022-09-12T07:14:39;5.17;;;4.87;;
8636;SDS011;4356;49.068;8.658;2022-09-12T07:17:04;5.53;;;5.03;;
8636;SDS011;4356;49.068;8.658;2022-09-12T07:19:30;5.57;;;5.17;;
8636;SDS011;4356;49.068;8.658;2022-09-12T07:21:57;5.37;;;4.97;;
8636;SDS011;4356;49.068;8.658;2022-09-12T07:24:22;5.40;;;5.10;;
8636;SDS011;4356;49.068;8.658;2022-09-12T07:26:48;5.23;;;4.80;;
8636;SDS011;4356;49.068;8.658;2022-09-12T07:29:15;4.77;;;4.57;;
8636;SDS011;4356;49.068;8.658;2022-09-12T07:31:42;5.17;;;4.87;;
8636;SDS011;4356;49.068;8.658;2022-09-12T07:34:07;4.77;;;4.47;;
8636;SDS011;4356;49.068;8.658;2022-09-12T07:36:33;5.00;;;4.60;;
8636;SDS011;4356;49.068;8.658;2022-09-12T07:39:00;6.77;;;4.80;;
8636;SDS011;4356;49.068;8.658;2022-09-12T07:41:26;5.30;;;5.00;;
8636;SDS011;4356;49.068;8.658;2022-09-12T07:43:55;5.00;;;4.70;;
8636;SDS011;4356;49.068;8.658;2022-09-12T07:46:23;4.30;;;4.00;;
8636;SDS011;4356;49.068;8.658;2022-09-12T07:48:53;5.37;;;4.90;;
8636;SDS011;4356;49.068;8.658;2022-09-12T07:51:21;3.83;;;3.63;;
8636;SDS011;4356;49.068;8.658;2022-09-12T07:53:48;3.90;;;3.57;;
8636;SDS011;4356;49.068;8.658;2022-09-12T07:56:16;3.77;;;3.57;;
8636;SDS011;4356;49.068;8.658;2022-09-12T07:58:44;3.97;;;3.63;;
8636;SDS011;4356;49.068;8.658;2022-09-12T08:01:14;3.90;;;3.70;;
8636;SDS011;4356;49.068;8.658;2022-09-12T08:03:42;3.87;;;3.67;;
8636;SDS011;4356;49.068;8.658;2022-09-12T08:06:10;3.53;;;3.23;;
8636;SDS011;4356;49.068;8.658;2022-09-12T08:08:39;3.60;;;3.40;;
8636;SDS011;4356;49.068;8.658;2022-09-12T08:11:07;3.63;;;3.33;;
8636;SDS011;4356;49.068;8.658;2022-09-12T08:13:37;3.60;;;3.40;;
8636;SDS011;4356;49.068;8.658;2022-09-12T08:16:04;3.40;;;3.20;;
8636;SDS011;4356;49.068;8.658;2022-09-12T08:18:36;3.73;;;3.50;;
8636;SDS011;4356;49.068;8.658;2022-09-12T08:21:03;3.30;;;3.10;;
8636;SDS011;4356;49.068;8.658;2022-09-12T08:23:30;3.70;;;3.40;;
8636;SDS011;4356;49.068;8.658;2022-09-12T08:26:00;3.10;;;2.90;;
8636;SDS011;4356;49.068;8.658;2022-09-12T08:28:27;3.57;;;2.87;;
8636;SDS011;4356;49.068;8.658;2022-09-12T08:31:05;4.30;;;3.50;;
8636;SDS011;4356;49.068;8.658;2022-09-12T08:33:32;3.40;;;3.20;;
8636;SDS011;4356;49.068;8.658;2022-09-12T08:36:02;3.33;;;3.13;;
8636;SDS011;4356;49.068;8.658;2022-09-12T08:38:33;3.30;;;3.10;;
8636;SDS011;4356;49.068;8.658;2022-09-12T08:41:08;3.10;;;3.00;;
8636;SDS011;4356;49.068;8.658;2022-09-12T08:49:25;3.00;;;2.90;;
8636;SDS011;4356;49.068;8.658;2022-09-12T08:51:58;2.83;;;2.73;;
8636;SDS011;4356;49.068;8.658;2022-09-12T08:54:29;3.13;;;2.93;;
8636;SDS011;4356;49.068;8.658;2022-09-12T08:57:03;2.90;;;2.70;;
8636;SDS011;4356;49.068;8.658;2022-09-12T08:59:31;2.50;;;2.40;;
8636;SDS011;4356;49.068;8.658;2022-09-12T09:16:19;2.60;;;2.50;;
8636;SDS011;4356;49.068;8.658;2022-09-12T09:18:50;2.67;;;2.47;;
8636;SDS011;4356;49.068;8.658;2022-09-12T09:24:03;2.40;;;2.30;;
8636;SDS011;4356;49.068;8.658;2022-09-12T09:26:38;6.27;;;2.60;;
8636;SDS011;4356;49.068;8.658;2022-09-12T09:29:23;2.70;;;2.60;;
8636;SDS011;4356;49.068;8.658;2022-09-12T09:31:59;2.70;;;2.60;;
8636;SDS011;4356;49.068;8.658;2022-09-12T09:34:28;2.50;;;2.40;;
8636;SDS011;4356;49.068;8.658;2022-09-12T09:37:07;2.47;;;2.37;;
8636;SDS011;4356;49.068;8.658;2022-09-12T09:42:54;2.67;;;2.53;;
8636;SDS011;4356;49.068;8.658;2022-09-12T09:45:29;2.40;;;2.30;;
8636;SDS011;4356;49.068;8.658;2022-09-12T09:50:45;2.70;;;2.53;;
8636;SDS011;4356;49.068;8.658;2022-09-12T09:53:36;2.43;;;2.33;;
8636;SDS011;4356;49.068;8.658;2022-09-12T09:58:50;2.60;;;2.40;;
8636;SDS011;4356;49.068;8.658;2022-09-12T10:01:15;2.50;;;2.40;;
8636;SDS011;4356;49.068;8.658;2022-09-12T10:03:49;2.50;;;2.40;;
8636;SDS011;4356;49.068;8.658;2022-09-12T10:08:48;2.70;;;2.50;;
8636;SDS011;4356;49.068;8.658;2022-09-12T10:13:41;2.47;;;2.17;;
8636;SDS011;4356;49.068;8.658;2022-09-12T10:16:22;2.60;;;2.50;;
8636;SDS011;4356;49.068;8.658;2022-09-12T10:18:49;2.60;;;2.40;;
8636;SDS011;4356;49.068;8.658;2022-09-12T10:24:00;5.20;;;2.33;;
8636;SDS011;4356;49.068;8.658;2022-09-12T10:26:33;3.77;;;2.20;;
8636;SDS011;4356;49.068;8.658;2022-09-12T10:29:24;2.50;;;2.30;;
8636;SDS011;4356;49.068;8.658;2022-09-12T10:32:02;2.47;;;2.27;;
8636;SDS011;4356;49.068;8.658;2022-09-12T10:34:38;2.30;;;2.20;;
8636;SDS011;4356;49.068;8.658;2022-09-12T10:37:08;2.47;;;2.27;;
8636;SDS011;4356;49.068;8.658;2022-09-12T10:39:42;2.10;;;2.00;;
8636;SDS011;4356;49.068;8.658;2022-09-12T10:42:17;2.87;;;2.13;;
8636;SDS011;4356;49.068;8.658;2022-09-12T10:45:32;2.47;;;2.37;;
8636;SDS011;4356;49.068;8.658;2022-09-12T10:50:48;2.10;;;2.00;;
8636;SDS011;4356;49.068;8.658;2022-09-12T10:53:18;2.33;;;2.23;;
8636;SDS011;4356;49.068;8.658;2022-09-12T11:00:53;2.20;;;2.10;;
8636;SDS011;4356;49.068;8.658;2022-09-12T11:03:58;2.33;;;2.23;;
8636;SDS011;4356;49.068;8.658;2022-09-12T11:06:21;2.77;;;2.10;;
8636;SDS011;4356;49.068;8.658;2022-09-12T11:08:59;2.07;;;1.97;;
8636;SDS011;4356;49.068;8.658;2022-09-12T11:14:35;2.00;;;1.90;;
8636;SDS011;4356;49.068;8.658;2022-09-12T11:20:09;2.43;;;2.23;;
8636;SDS011;4356;49.068;8.658;2022-09-12T11:22:56;2.20;;;2.10;;
8636;SDS011;4356;49.068;8.658;2022-09-12T11:29:04;4.83;;;2.17;;
8636;SDS011;4356;49.068;8.658;2022-09-12T11:31:45;2.77;;;1.93;;
8636;SDS011;4356;49.068;8.658;2022-09-12T11:39:58;2.20;;;2.10;;
8636;SDS011;4356;49.068;8.658;2022-09-12T11:42:37;2.40;;;1.53;;
8636;SDS011;4356;49.068;8.658;2022-09-12T11:45:18;2.10;;;2.00;;
8636;SDS011;4356;49.068;8.658;2022-09-12T11:48:00;2.40;;;2.10;;
8636;SDS011;4356;49.068;8.658;2022-09-12T11:50:31;2.20;;;2.10;;
8636;SDS011;4356;49.068;8.658;2022-09-12T11:53:10;1.80;;;1.80;;
8636;SDS011;4356;49.068;8.658;2022-09-12T11:58:30;1.60;;;1.60;;
8636;SDS011;4356;49.068;8.658;2022-09-12T12:01:14;2.10;;;2.00;;
8636;SDS011;4356;49.068;8.658;2022-09-12T12:03:45;1.80;;;1.77;;
8636;SDS011;4356;49.068;8.658;2022-09-12T12:06:26;5.17;;;2.00;;
8636;SDS011;4356;49.068;8.658;2022-09-12T12:08:57;1.87;;;1.70;;
8636;SDS011;4356;49.068;8.658;2022-09-12T12:11:37;2.33;;;1.80;;
8636;SDS011;4356;49.068;8.658;2022-09-12T12:16:48;1.70;;;1.70;;
8636;SDS011;4356;49.068;8.658;2022-09-12T12:21:40;3.00;;;1.70;;
8636;SDS011;4356;49.068;8.658;2022-09-12T12:24:21;1.80;;;1.77;;
8636;SDS011;4356;49.068;8.658;2022-09-12T12:34:32;2.23;;;1.70;;
8636;SDS011;4356;49.068;8.658;2022-09-12T12:44:58;2.20;;;1.40;;
8636;SDS011;4356;49.068;8.658;2022-09-12T12:47:46;1.60;;;1.50;;
8636;SDS011;4356;49.068;8.658;2022-09-12T12:50:21;1.70;;;1.60;;
8636;SDS011;4356;49.068;8.658;2022-09-12T12:53:03;1.63;;;1.57;;
8636;SDS011;4356;49.068;8.658;2022-09-12T12:58:06;1.77;;;1.67;;
8636;SDS011;4356;49.068;8.658;2022-09-12T13:01:00;1.80;;;1.70;;
8636;SDS011;4356;49.068;8.658;2022-09-12T13:03:31;1.60;;;1.42;;
8636;SDS011;4356;49.068;8.658;2022-09-12T13:06:02;1.42;;;1.40;;
8636;SDS011;4356;49.068;8.658;2022-09-12T13:08:37;1.90;;;1.80;;
8636;SDS011;4356;49.068;8.658;2022-09-12T13:11:09;3.10;;;1.45;;
8636;SDS011;4356;49.068;8.658;2022-09-12T13:13:40;2.20;;;1.67;;
8636;SDS011;4356;49.068;8.658;2022-09-12T13:16:55;3.05;;;1.70;;
8636;SDS011;4356;49.068;8.658;2022-09-12T13:19:25;2.00;;;1.73;;
8636;SDS011;4356;49.068;8.658;2022-09-12T13:22:01;1.60;;;1.50;;
8636;SDS011;4356;49.068;8.658;2022-09-12T13:24:28;1.73;;;1.63;;
8636;SDS011;4356;49.068;8.658;2022-09-12T13:26:55;1.40;;;1.30;;
8636;SDS011;4356;49.068;8.658;2022-09-12T13:29:22;1.65;;;1.65;;
8636;SDS011;4356;49.068;8.658;2022-09-12T13:31:51;1.27;;;1.27;;
8636;SDS011;4356;49.068;8.658;2022-09-12T13:34:23;3.00;;;1.35;;
8636;SDS011;4356;49.068;8.658;2022-09-12T13:40:12;2.20;;;1.48;;
8636;SDS011;4356;49.068;8.658;2022-09-12T13:42:41;1.27;;;1.27;;
8636;SDS011;4356;49.068;8.658;2022-09-12T13:47:53;2.50;;;1.42;;
8636;SDS011;4356;49.068;8.658;2022-09-12T13:50:24;1.40;;;1.40;;
8636;SDS011;4356;49.068;8.658;2022-09-12T13:52:54;1.20;;;1.20;;
8636;SDS011;4356;49.068;8.658;2022-09-12T13:55:30;2.38;;;1.10;;
8636;SDS011;4356;49.068;8.658;2022-09-12T13:58:18;2.38;;;1.23;;
8636;SDS011;4356;49.068;8.658;2022-09-12T14:06:47;1.23;;;1.23;;
8636;SDS011;4356;49.068;8.658;2022-09-12T14:09:15;2.75;;;1.25;;
8636;SDS011;4356;49.068;8.658;2022-09-12T14:12:11;3.33;;;1.33;;
8636;SDS011;4356;49.068;8.658;2022-09-12T14:14:45;5.85;;;2.22;;
8636;SDS011;4356;49.068;8.658;2022-09-12T14:19:53;1.73;;;1.63;;
8636;SDS011;4356;49.068;8.658;2022-09-12T14:22:27;2.30;;;1.20;;
8636;SDS011;4356;49.068;8.658;2022-09-12T14:24:54;1.20;;;1.10;;
8636;SDS011;4356;49.068;8.658;2022-09-12T14:27:25;1.27;;;1.25;;
8636;SDS011;4356;49.068;8.658;2022-09-12T14:30:02;1.40;;;1.30;;
8636;SDS011;4356;49.068;8.658;2022-09-12T14:35:36;1.38;;;1.27;;
8636;SDS011;4356;49.068;8.658;2022-09-12T14:38:06;1.00;;;1.00;;
8636;SDS011;4356;49.068;8.658;2022-09-12T14:40:46;25.35;;;21.10;;
8636;SDS011;4356;49.068;8.658;2022-09-12T14:46:02;1.95;;;1.85;;
8636;SDS011;4356;49.068;8.658;2022-09-12T14:48:33;1.42;;;1.30;;
8636;SDS011;4356;49.068;8.658;2022-09-12T14:51:01;1.83;;;1.23;;
8636;SDS011;4356;49.068;8.658;2022-09-12T14:53:35;2.03;;;1.63;;
8636;SDS011;4356;49.068;8.658;2022-09-12T14:58:34;1.30;;;1.20;;
8636;SDS011;4356;49.068;8.658;2022-09-12T15:01:02;2.67;;;1.40;;
8636;SDS011;4356;49.068;8.658;2022-09-12T15:03:35;1.20;;;1.20;;
8636;SDS011;4356;49.068;8.658;2022-09-12T15:06:17;2.15;;;1.40;;
8636;SDS011;4356;49.068;8.658;2022-09-12T15:08:56;1.50;;;1.40;;
8636;SDS011;4356;49.068;8.658;2022-09-12T15:11:27;1.20;;;1.20;;
8636;SDS011;4356;49.068;8.658;2022-09-12T15:13:53;1.63;;;1.52;;
8636;SDS011;4356;49.068;8.658;2022-09-12T15:16:19;1.38;;;1.27;;
8636;SDS011;4356;49.068;8.658;2022-09-12T15:18:45;2.42;;;1.33;;
8636;SDS011;4356;49.068;8.658;2022-09-12T15:21:17;0.98;;;0.98;;
8636;SDS011;4356;49.068;8.658;2022-09-12T15:23:47;1.25;;;1.15;;
8636;SDS011;4356;49.068;8.658;2022-09-12T15:26:20;1.80;;;1.35;;
8636;SDS011;4356;49.068;8.658;2022-09-12T15:28:48;1.20;;;1.20;;
8636;SDS011;4356;49.068;8.658;2022-09-12T15:33:47;1.35;;;1.35;;
8636;SDS011;4356;49.068;8.658;2022-09-12T15:36:14;1.05;;;1.05;;
8636;SDS011;4356;49.068;8.658;2022-09-12T15:38:42;1.30;;;1.20;;
8636;SDS011;4356;49.068;8.658;2022-09-12T15:41:09;1.50;;;1.45;;
8636;SDS011;4356;49.068;8.658;2022-09-12T15:43:43;1.40;;;1.30;;
8636;SDS011;4356;49.068;8.658;2022-09-12T15:46:10;2.80;;;1.42;;
8636;SDS011;4356;49.068;8.658;2022-09-12T15:48:37;2.33;;;1.52;;
8636;SDS011;4356;49.068;8.658;2022-09-12T15:51:04;1.50;;;1.40;;
8636;SDS011;4356;49.068;8.658;2022-09-12T15:53:30;1.10;;;1.10;;
8636;SDS011;4356;49.068;8.658;2022-09-12T15:55:56;1.08;;;1.08;;
8636;SDS011;4356;49.068;8.658;2022-09-12T15:58:21;1.63;;;1.52;;
8636;SDS011;4356;49.068;8.658;2022-09-12T16:00:47;1.27;;;1.27;;
8636;SDS011;4356;49.068;8.658;2022-09-12T16:03:23;1.30;;;1.30;;
8636;SDS011;4356;49.068;8.658;2022-09-12T16:05:55;0.93;;;0.93;;
8636;SDS011;4356;49.068;8.658;2022-09-12T16:08:23;1.25;;;1.25;;
8636;SDS011;4356;49.068;8.658;2022-09-12T16:10:51;1.40;;;1.30;;
8636;SDS011;4356;49.068;8.658;2022-09-12T16:13:20;2.67;;;1.27;;
8636;SDS011;4356;49.068;8.658;2022-09-12T16:15:46;1.45;;;1.45;;
8636;SDS011;4356;49.068;8.658;2022-09-12T16:18:11;1.30;;;1.30;;
8636;SDS011;4356;49.068;8.658;2022-09-12T16:20:37;1.10;;;1.10;;
8636;SDS011;4356;49.068;8.658;2022-09-12T16:23:04;1.10;;;1.10;;
8636;SDS011;4356;49.068;8.658;2022-09-12T16:25:30;1.10;;;1.10;;
8636;SDS011;4356;49.068;8.658;2022-09-12T16:27:55;1.65;;;1.30;;
8636;SDS011;4356;49.068;8.658;2022-09-12T16:30:21;1.10;;;1.10;;
8636;SDS011;4356;49.068;8.658;2022-09-12T16:32:46;1.05;;;1.05;;
8636;SDS011;4356;49.068;8.658;2022-09-12T16:35:12;1.90;;;1.05;;
8636;SDS011;4356;49.068;8.658;2022-09-12T16:37:38;1.73;;;1.42;;
8636;SDS011;4356;49.068;8.658;2022-09-12T16:40:04;1.17;;;1.17;;
8636;SDS011;4356;49.068;8.658;2022-09-12T16:42:31;1.95;;;1.13;;
8636;SDS011;4356;49.068;8.658;2022-09-12T16:44:56;1.20;;;1.20;;
8636;SDS011;4356;49.068;8.658;2022-09-12T16:47:22;2.80;;;1.60;;
8636;SDS011;4356;49.068;8.658;2022-09-12T16:49:48;1.27;;;1.02;;
8636;SDS011;4356;49.068;8.658;2022-09-12T16:52:15;3.80;;;1.10;;
8636;SDS011;4356;49.068;8.658;2022-09-12T16:54:41;1.42;;;1.33;;
8636;SDS011;4356;49.068;8.658;2022-09-12T16:57:08;2.50;;;1.50;;
8636;SDS011;4356;49.068;8.658;2022-09-12T16:59:34;1.50;;;1.40;;
8636;SDS011;4356;49.068;8.658;2022-09-12T17:02:00;1.85;;;1.42;;
8636;SDS011;4356;49.068;8.658;2022-09-12T17:04:26;1.33;;;1.33;;
8636;SDS011;4356;49.068;8.658;2022-09-12T17:06:52;1.63;;;1.52;;
8636;SDS011;4356;49.068;8.658;2022-09-12T17:09:17;1.60;;;1.50;;
8636;SDS011;4356;49.068;8.658;2022-09-12T17:11:43;1.30;;;1.20;;
8636;SDS011;4356;49.068;8.658;2022-09-12T17:14:11;2.20;;;1.50;;
8636;SDS011;4356;49.068;8.658;2022-09-12T17:16:39;1.42;;;1.42;;
8636;SDS011;4356;49.068;8.658;2022-09-12T17:19:07;1.35;;;1.30;;
8636;SDS011;4356;49.068;8.658;2022-09-12T17:21:36;1.30;;;1.30;;
8636;SDS011;4356;49.068;8.658;2022-09-12T17:24:01;1.63;;;1.52;;
8636;SDS011;4356;49.068;8.658;2022-09-12T17:26:27;1.77;;;1.67;;
8636;SDS011;4356;49.068;8.658;2022-09-12T17:28:53;5.05;;;2.13;;
8636;SDS011;4356;49.068;8.658;2022-09-12T17:31:18;5.50;;;1.75;;
8636;SDS011;4356;49.068;8.658;2022-09-12T17:33:44;5.63;;;1.80;;
8636;SDS011;4356;49.068;8.658;2022-09-12T17:36:11;12.30;;;2.50;;
8636;SDS011;4356;49.068;8.658;2022-09-12T17:38:39;7.47;;;2.28;;
8636;SDS011;4356;49.068;8.658;2022-09-12T17:41:06;7.35;;;1.80;;
8636;SDS011;4356;49.068;8.658;2022-09-12T17:43:40;13.77;;;2.20;;
8636;SDS011;4356;49.068;8.658;2022-09-12T17:46:05;3.38;;;1.85;;
8636;SDS011;4356;49.068;8.658;2022-09-12T17:48:32;6.57;;;1.90;;
8636;SDS011;4356;49.068;8.658;2022-09-12T17:51:05;7.40;;;1.70;;
8636;SDS011;4356;49.068;8.658;2022-09-12T17:53:34;4.55;;;1.92;;
8636;SDS011;4356;49.068;8.658;2022-09-12T17:56:00;7.95;;;2.70;;
8636;SDS011;4356;49.068;8.658;2022-09-12T17:58:27;6.13;;;1.70;;
8636;SDS011;4356;49.068;8.658;2022-09-12T18:00:58;4.55;;;1.77;;
8636;SDS011;4356;49.068;8.658;2022-09-12T18:03:46;3.78;;;1.80;;
8636;SDS011;4356;49.068;8.658;2022-09-12T18:06:12;9.18;;;2.25;;
8636;SDS011;4356;49.068;8.658;2022-09-12T18:08:39;1.98;;;1.55;;
8636;SDS011;4356;49.068;8.658;2022-09-12T18:11:05;13.52;;;1.60;;
8636;SDS011;4356;49.068;8.658;2022-09-12T18:13:34;7.32;;;2.22;;
8636;SDS011;4356;49.068;8.658;2022-09-12T18:16:04;2.88;;;2.05;;